Weather at Fitchburg Municipal Airport

Public forecast

Using degrees Fahrenheit for public forecast. Weather courtesy of forecast.io.

Current aviation weather report (METAR) for Fitchburg Municipal Airport

Retrieved 2020/09/29 22:04 UTC (30 minutes ago):

KFIT 292204Z AUTO 14010KT 10SM BKN029 OVC035 24/18 A2984 RMK AO2 T02390183

Closest aviation forecast (TAF) to Fitchburg Municipal Airport

Closest forecast is Worcester Regional Airport, 18.0 nm (33.3 km) SSW. Retrieved 2020/09/29 18:30 UTC (4 hours ago):

TAF KORH 291729Z 2918/3018 19009KT P6SM BKN060 BKN080 FM291900 19008KT P6SM BKN030 FM300000 18007KT 6SM BR OVC008 FM300600 17010G26KT 3SM -RA BR OVC003 FM301300 22012G34KT 3SM RA BR OVC008 FM301500 25011G23KT P6SM VCSH BKN008